Time;durP1;ratioP1;P1;durP2;ratioP2;P2;SDS_P1;SDS_P2;PMS_P1;PMS_P2;Temp;Humidity;BMP_temperature;BMP_pressure;BME280_temperature;BME280_humidity;BME280_pressure;Samples;Min_cycle;Max_cycle;Signal;HPM_P1;HPM_P2
2023/10/18 00:02:52;;;;;;;5.88;3.10;;;;;;;7.54;70.45;101914.19;7397026;19;20019;-64
2023/10/18 00:05:21;;;;;;;7.93;3.40;;;;;;;7.47;70.39;101918.00;7394477;19;20023;-64
2023/10/18 00:07:49;;;;;;;7.25;3.63;;;;;;;7.29;70.85;101914.38;7399629;19;20022;-63
2023/10/18 00:10:17;;;;;;;6.00;3.60;;;;;;;6.97;71.96;101918.28;7398008;19;20385;-59
2023/10/18 00:12:45;;;;;;;7.00;3.60;;;;;;;6.77;72.89;101918.25;7399046;19;20011;-61
2023/10/18 00:15:14;;;;;;;5.40;3.03;;;;;;;7.14;71.74;101917.63;7398720;19;20018;-60
2023/10/18 00:17:42;;;;;;;5.85;3.00;;;;;;;7.38;70.78;101910.50;7398411;19;20025;-60
2023/10/18 00:20:16;;;;;;;8.38;3.60;;;;;;;7.40;70.25;101911.28;7398207;19;20018;-60
2023/10/18 00:22:44;;;;;;;;;;;;;;;7.14;70.69;101916.78;7397360;19;20352;-59
2023/10/18 00:25:12;;;;;;;6.47;3.05;;;;;;;7.13;71.14;101915.91;7397492;19;19918;-59
2023/10/18 00:27:46;;;;;;;6.72;3.15;;;;;;;7.22;70.89;101912.06;7397343;19;20027;-59
2023/10/18 00:30:14;;;;;;;8.60;3.08;;;;;;;7.26;70.52;101903.97;7397652;19;20019;-61
2023/10/18 00:32:42;;;;;;;6.32;3.20;;;;;;;7.33;70.39;101902.78;7398414;19;20046;-63
2023/10/18 00:35:47;;;;;;;7.20;3.25;;;;;;;7.29;70.65;101902.97;7398693;19;20371;-62
2023/10/18 00:38:08;;;;;;;8.10;3.17;;;;;;;7.23;70.56;101901.44;7396957;19;20093;-60
2023/10/18 00:40:36;;;;;;;7.07;3.35;;;;;;;7.21;70.60;101905.94;7397486;19;20022;-61
2023/10/18 00:43:27;;;;;;;5.75;3.40;;;;;;;7.25;70.70;101904.00;7399631;19;20014;-62
2023/10/18 00:45:55;;;;;;;6.90;3.60;;;;;;;7.17;70.65;101901.69;7396731;19;20031;-61
2023/10/18 00:48:27;;;;;;;5.65;3.10;;;;;;;7.29;70.50;101898.56;7397210;19;20026;-60
2023/10/18 00:50:57;;;;;;;6.07;3.28;;;;;;;7.05;70.72;101894.28;7398017;19;20070;-60
2023/10/18 00:53:30;;;;;;;7.32;3.78;;;;;;;6.54;72.46;101901.56;7398090;19;20031;-59
2023/10/18 00:55:59;;;;;;;5.88;3.30;;;;;;;6.24;73.63;101906.19;7398422;19;20368;-59
2023/10/18 00:58:32;;;;;;;6.28;3.15;;;;;;;6.19;73.97;101895.00;7397028;19;20381;-61
2023/10/18 01:01:06;;;;;;;8.73;3.63;;;;;;;6.14;74.06;101889.03;7396294;19;20010;-60
2023/10/18 01:03:35;;;;;;;6.05;3.30;;;;;;;6.10;74.35;101890.06;7397406;19;20397;-61
2023/10/18 01:06:16;;;;;;;5.90;3.28;;;;;;;6.21;73.88;101881.78;7395429;19;20022;-61
2023/10/18 01:08:47;;;;;;;4.25;2.83;;;;;;;6.33;73.24;101897.09;7396365;19;20022;-62
2023/10/18 01:11:19;;;;;;;6.32;3.40;;;;;;;6.06;74.08;101897.19;7397242;19;20049;-63
2023/10/18 01:13:47;;;;;;;6.53;3.10;;;;;;;6.04;74.01;101893.78;7397072;19;20452;-63
2023/10/18 01:16:35;;;;;;;3.90;2.70;;;;;;;5.97;74.07;101894.06;7396509;19;20025;-63
2023/10/18 01:19:08;;;;;;;6.75;3.60;;;;;;;5.93;74.25;101893.31;7394890;19;20029;-63
2023/10/18 01:21:36;;;;;;;5.18;2.88;;;;;;;6.09;74.25;101878.69;7395464;19;20025;-63
2023/10/18 01:24:04;;;;;;;5.53;2.90;;;;;;;6.49;72.52;101869.31;7398396;19;20043;-66
2023/10/18 01:26:32;;;;;;;6.43;3.08;;;;;;;6.68;71.42;101855.41;7394213;19;20018;-66
2023/10/18 01:29:03;;;;;;;4.85;2.88;;;;;;;6.90;70.22;101864.16;7390840;19;20444;-66
2023/10/18 01:31:31;;;;;;;5.68;3.10;;;;;;;6.84;70.03;101856.53;7393648;19;20014;-64
2023/10/18 01:33:59;;;;;;;7.72;3.28;;;;;;;6.83;70.10;101858.31;7392534;19;20019;-59
2023/10/18 01:36:30;;;;;;;6.15;3.60;;;;;;;6.58;70.27;101853.16;7394009;19;20018;-59
2023/10/18 01:38:59;;;;;;;5.43;3.00;;;;;;;6.15;71.95;101868.88;7391207;19;20036;-58
2023/10/18 01:41:28;;;;;;;6.57;3.28;;;;;;;6.41;70.68;101859.97;7391839;19;20029;-59
2023/10/18 01:44:07;;;;;;;4.80;3.22;;;;;;;6.39;70.08;101862.69;7391862;19;20570;-58
2023/10/18 01:46:37;;;;;;;4.75;2.83;;;;;;;6.34;71.19;101854.13;7392999;19;20349;-59
2023/10/18 01:49:06;;;;;;;4.43;2.90;;;;;;;6.43;70.84;101852.91;7391189;19;20483;-59
2023/10/18 01:51:34;;;;;;;6.80;3.10;;;;;;;6.55;70.79;101855.91;7391858;19;20046;-59
2023/10/18 01:54:12;;;;;;;4.18;2.70;;;;;;;6.67;70.24;101848.44;7393202;19;20034;-59
2023/10/18 01:56:41;;;;;;;6.72;3.20;;;;;;;6.78;70.02;101841.81;7393313;19;20389;-57
2023/10/18 01:59:14;;;;;;;5.47;2.90;;;;;;;6.86;70.12;101843.28;7390326;19;20085;-58
2023/10/18 02:01:44;;;;;;;4.33;2.10;;;;;;;6.56;70.40;101833.94;7391109;19;20010;-59
2023/10/18 02:04:24;;;;;;;4.95;2.78;;;;;;;6.57;70.92;101832.16;7392451;19;20010;-60
2023/10/18 02:07:09;;;;;;;4.38;2.20;;;;;;;6.54;70.32;101833.13;7391244;19;20026;-59
2023/10/18 02:09:52;;;;;;;5.40;3.30;;;;;;;6.51;70.90;101822.72;7390439;19;20470;-59
2023/10/18 02:12:21;;;;;;;4.82;2.90;;;;;;;6.52;70.25;101826.22;7392543;19;20034;-59
2023/10/18 02:14:50;;;;;;;4.60;2.70;;;;;;;6.66;70.21;101821.25;7393159;19;20022;-59
2023/10/18 02:17:18;;;;;;;5.90;3.22;;;;;;;6.61;69.90;101823.22;7392468;19;20020;-59
2023/10/18 02:19:51;;;;;;;4.70;2.78;;;;;;;6.62;69.97;101826.72;7389650;19;20023;-59
2023/10/18 02:22:19;;;;;;;4.97;2.60;;;;;;;6.64;69.69;101817.84;7392240;19;20022;-59
2023/10/18 02:24:50;;;;;;;6.57;2.80;;;;;;;6.62;70.07;101817.03;7391232;19;20011;-59
2023/10/18 02:27:19;;;;;;;4.60;2.60;;;;;;;6.52;69.98;101813.06;7392025;19;20498;-57
2023/10/18 02:29:47;;;;;;;6.07;2.75;;;;;;;6.43;70.50;101809.03;7389815;19;20018;-58
2023/10/18 02:32:32;;;;;;;4.25;2.40;;;;;;;6.32;70.68;101804.19;7392325;19;20015;-56
2023/10/18 02:35:04;;;;;;;6.25;2.75;;;;;;;6.28;70.94;101793.84;7390746;19;20029;-53
2023/10/18 02:37:32;;;;;;;5.10;2.35;;;;;;;6.24;71.04;101792.25;7392207;19;20018;-56
2023/10/18 02:40:08;;;;;;;4.80;2.55;;;;;;;6.32;70.76;101791.03;7389655;19;20018;-56
2023/10/18 02:42:37;;;;;;;5.07;2.40;;;;;;;6.26;70.86;101790.44;7392820;19;20377;-57
2023/10/18 02:45:12;;;;;;;4.93;2.47;;;;;;;6.22;70.90;101786.19;7392913;19;20018;-56
2023/10/18 02:47:42;;;;;;;6.68;2.50;;;;;;;6.16;71.17;101789.06;7393576;19;20349;-55
2023/10/18 02:50:14;;;;;;;4.80;2.45;;;;;;;6.18;71.27;101792.47;7392484;19;20022;-57
2023/10/18 02:52:43;;;;;;;6.57;2.95;;;;;;;6.24;71.29;101793.09;7393255;19;20038;-58
2023/10/18 02:55:11;;;;;;;5.10;2.50;;;;;;;6.23;70.96;101803.69;7396284;19;20038;-56
2023/10/18 02:57:40;;;;;;;3.95;2.20;;;;;;;6.16;70.97;101794.31;7401774;19;20011;-55
2023/10/18 03:00:11;;;;;;;4.70;2.72;;;;;;;6.02;71.74;101800.09;7399399;19;20503;-56
2023/10/18 03:02:39;;;;;;;4.18;2.47;;;;;;;5.95;71.65;101801.22;7399687;19;20384;-60
2023/10/18 03:05:07;;;;;;;5.10;2.20;;;;;;;5.94;71.88;101796.91;7399515;19;20467;-60
2023/10/18 03:07:35;;;;;;;3.97;2.35;;;;;;;5.99;71.31;101797.56;7398149;19;20029;-58
2023/10/18 03:10:11;;;;;;;3.63;2.30;;;;;;;6.08;71.24;101792.84;7394102;19;20017;-59
2023/10/18 03:12:44;;;;;;;6.35;2.60;;;;;;;6.06;71.33;101793.81;7398801;19;20022;-57
2023/10/18 03:15:18;;;;;;;3.47;2.40;;;;;;;6.22;71.20;101794.94;7397744;19;20032;-60
2023/10/18 03:17:49;;;;;;;4.75;2.70;;;;;;;6.23;70.84;101791.41;7398260;19;20010;-61
2023/10/18 03:20:26;;;;;;;5.03;2.70;;;;;;;6.25;70.89;101786.91;7398172;19;20011;-61
2023/10/18 03:22:55;;;;;;;7.00;3.90;;;;;;;6.20;70.96;101788.88;7398541;19;20019;-61
2023/10/18 03:25:30;;;;;;;4.57;3.08;;;;;;;6.32;70.37;101779.66;7396821;19;20011;-61
2023/10/18 03:28:03;;;;;;;4.28;2.70;;;;;;;6.32;70.40;101782.28;7397613;19;20025;-60
2023/10/18 03:30:47;;;;;;;5.63;2.78;;;;;;;6.05;70.78;101784.22;7396784;19;20011;-64
2023/10/18 03:33:14;;;;;;;4.82;2.55;;;;;;;5.65;72.35;101784.78;7397939;19;20022;-64
2023/10/18 03:35:43;;;;;;;5.53;3.00;;;;;;;5.50;73.41;101788.84;7397972;19;20092;-64
2023/10/18 03:38:17;;;;;;;6.53;2.88;;;;;;;5.51;73.12;101795.81;7395633;19;20014;-63
2023/10/18 03:40:56;;;;;;;5.28;3.05;;;;;;;5.29;73.63;101786.06;7396735;19;20035;-63
2023/10/18 03:43:26;;;;;;;5.35;2.83;;;;;;;5.17;73.99;101783.88;7397885;19;20047;-63
2023/10/18 03:46:29;;;;;;;5.40;2.40;;;;;;;5.10;74.39;101791.09;7395736;19;20035;-63
2023/10/18 03:49:01;;;;;;;5.28;2.95;;;;;;;5.07;75.18;101785.09;7393115;19;20018;-63
2023/10/18 03:51:30;;;;;;;5.05;2.90;;;;;;;5.13;74.71;101788.38;7397469;19;20027;-63
2023/10/18 03:54:00;;;;;;;6.75;3.20;;;;;;;5.18;74.29;101768.97;7397415;19;20017;-63
2023/10/18 03:56:32;;;;;;;7.45;3.17;;;;;;;5.36;73.83;101769.19;7396073;19;20023;-63
2023/10/18 03:59:09;;;;;;;5.57;3.20;;;;;;;5.26;74.09;101774.81;7392954;19;20024;-64
2023/10/18 04:01:44;;;;;;;6.78;3.70;;;;;;;5.13;74.46;101766.50;7397248;19;20387;-64
2023/10/18 04:04:18;;;;;;;5.38;3.10;;;;;;;5.10;74.42;101764.84;7397060;19;20019;-64
2023/10/18 04:06:50;;;;;;;7.45;3.58;;;;;;;5.14;74.27;101755.09;7393207;19;20014;-64
2023/10/18 04:09:18;;;;;;;5.80;2.95;;;;;;;5.42;73.93;101749.72;7394246;19;20011;-63
2023/10/18 04:11:47;;;;;;;5.88;2.63;;;;;;;5.67;72.15;101740.94;7396945;19;20023;-62
2023/10/18 04:14:16;;;;;;;5.80;2.97;;;;;;;5.87;71.60;101747.13;7396885;19;20018;-65
2023/10/18 04:16:47;;;;;;;5.22;2.33;;;;;;;5.81;70.97;101736.03;7395225;19;20022;-64
2023/10/18 04:19:19;;;;;;;5.65;2.80;;;;;;;5.87;71.10;101746.28;7393751;19;20037;-64
2023/10/18 04:21:52;;;;;;;6.30;2.90;;;;;;;5.73;71.42;101738.09;7397320;19;20046;-65
2023/10/18 04:24:20;;;;;;;5.15;3.20;;;;;;;5.37;72.35;101738.53;7396383;19;20025;-65
2023/10/18 04:26:47;;;;;;;5.68;2.90;;;;;;;5.74;72.12;101731.91;7394511;19;20043;-65
2023/10/18 04:29:33;;;;;;;7.13;3.17;;;;;;;5.91;71.23;101731.25;7392423;19;20015;-64
2023/10/18 04:32:03;;;;;;;6.30;3.20;;;;;;;5.91;71.11;101721.59;7395438;19;20491;-61
2023/10/18 04:34:33;;;;;;;6.20;2.90;;;;;;;5.93;71.34;101722.44;7396260;19;20408;-59
2023/10/18 04:37:01;;;;;;;5.65;2.97;;;;;;;5.91;71.66;101715.47;7396607;19;20018;-56
2023/10/18 04:39:29;;;;;;;5.95;3.50;;;;;;;5.85;72.05;101706.94;7392188;19;20018;-63
2023/10/18 04:41:57;;;;;;;6.18;3.67;;;;;;;5.82;72.23;101709.66;7394982;19;20050;-61
2023/10/18 04:44:24;;;;;;;7.60;4.13;;;;;;;5.84;71.97;101707.84;7395782;19;20026;-62
2023/10/18 04:46:53;;;;;;;7.55;3.78;;;;;;;5.91;71.80;101704.97;7393619;19;20491;-62
2023/10/18 04:49:36;;;;;;;6.97;3.95;;;;;;;5.94;72.12;101703.13;7391386;19;20042;-62
2023/10/18 04:52:07;;;;;;;6.43;3.57;;;;;;;6.02;72.32;101697.56;7394803;19;20010;-62
2023/10/18 04:54:37;;;;;;;8.23;3.60;;;;;;;6.04;72.09;101699.22;7395537;19;20018;-62
2023/10/18 04:57:10;;;;;;;7.40;3.78;;;;;;;6.00;72.34;101695.00;7395804;19;20055;-62
2023/10/18 04:59:45;;;;;;;6.90;3.53;;;;;;;6.12;71.90;101688.41;7392248;19;20495;-62
2023/10/18 05:02:26;;;;;;;8.02;3.92;;;;;;;6.25;71.54;101681.72;7394012;19;20018;-63
2023/10/18 05:04:57;;;;;;;7.38;3.75;;;;;;;6.27;71.41;101674.63;7395091;19;20496;-63
2023/10/18 05:07:42;;;;;;;6.57;3.65;;;;;;;6.29;71.33;101674.56;7394558;19;20476;-62
2023/10/18 05:10:16;;;;;;;7.70;3.78;;;;;;;6.42;70.94;101667.88;7393452;19;20015;-62
2023/10/18 05:12:53;;;;;;;;;;;;;;;6.24;71.10;101668.63;7394992;19;20023;-62
2023/10/18 05:15:31;;;;;;;7.57;4.07;;;;;;;6.22;71.95;101660.81;7394286;19;20371;-62
2023/10/18 05:18:04;;;;;;;8.10;4.30;;;;;;;6.31;71.49;101651.69;7392337;19;20030;-62
2023/10/18 05:20:42;;;;;;;8.68;4.53;;;;;;;6.38;71.36;101644.41;7390595;19;20022;-62
2023/10/18 05:23:10;;;;;;;9.73;4.32;;;;;;;6.40;71.47;101648.66;7394085;19;20014;-62
2023/10/18 05:25:45;;;;;;;8.95;5.00;;;;;;;6.39;71.55;101638.22;7393246;19;20064;-63
2023/10/18 05:28:15;;;;;;;9.10;5.20;;;;;;;6.34;71.55;101646.31;7392947;19;20054;-63
2023/10/18 05:33:47;;;;;;;8.93;4.80;;;;;;;6.32;71.82;101650.75;7393491;19;20038;-63
2023/10/18 05:43:58;;;;;;;10.05;4.82;;;;;;;6.25;72.33;101646.66;7393610;19;20010;-63
2023/10/18 05:46:27;;;;;;;9.32;4.75;;;;;;;6.28;71.86;101657.91;7392173;19;20341;-63
2023/10/18 05:48:59;;;;;;;8.25;4.57;;;;;;;6.34;71.53;101651.56;7391062;19;20026;-62
2023/10/18 05:51:34;;;;;;;9.15;4.72;;;;;;;6.32;71.36;101653.38;7393286;19;20026;-63
2023/10/18 05:54:05;;;;;;;10.40;4.38;;;;;;;6.46;71.20;101651.03;7393591;19;20018;-63
2023/10/18 05:56:34;;;;;;;8.95;4.30;;;;;;;6.42;71.53;101649.47;7393192;19;20092;-63
2023/10/18 06:01:58;;;;;;;8.20;4.35;;;;;;;6.26;72.18;101646.63;7393079;19;20022;-62
2023/10/18 06:04:42;;;;;;;11.15;4.63;;;;;;;6.28;72.15;101641.28;7392424;19;20011;-63
2023/10/18 06:07:10;;;;;;;7.22;3.80;;;;;;;6.23;71.78;101644.13;7391733;19;20120;-61
2023/10/18 06:09:45;;;;;;;9.50;4.78;;;;;;;6.17;72.36;101643.50;7389768;19;20026;-61
2023/10/18 06:12:21;;;;;;;9.18;4.30;;;;;;;6.13;72.38;101634.88;7392501;19;20026;-61
2023/10/18 06:14:52;;;;;;;9.77;4.43;;;;;;;6.04;72.77;101633.50;7392850;19;20022;-61
2023/10/18 06:17:40;;;;;;;8.70;4.63;;;;;;;6.06;72.62;101634.25;7392728;19;20700;-61
2023/10/18 06:20:24;;;;;;;8.85;3.90;;;;;;;6.09;72.84;101628.03;7390962;19;20023;-61
2023/10/18 06:22:59;;;;;;;8.10;4.60;;;;;;;6.08;72.82;101623.69;7392578;19;20014;-61
2023/10/18 06:25:35;;;;;;;7.35;4.45;;;;;;;6.14;72.71;101625.22;7392240;19;20051;-61
2023/10/18 06:28:07;;;;;;;10.93;4.40;;;;;;;6.15;73.03;101619.91;7391122;19;20019;-61
2023/10/18 06:30:41;;;;;;;9.57;5.22;;;;;;;6.14;72.86;101617.31;7390121;19;20019;-61
2023/10/18 06:33:09;;;;;;;9.63;3.42;;;;;;;6.02;73.07;101613.44;7392942;19;20086;-61
2023/10/18 06:35:51;;;;;;;12.73;4.85;;;;;;;6.09;73.51;101614.88;7391889;19;20021;-62
2023/10/18 06:38:24;;;;;;;7.75;4.40;;;;;;;6.18;73.07;101605.75;7391645;19;20029;-62
2023/10/18 06:41:00;;;;;;;8.35;4.55;;;;;;;6.17;72.79;101601.41;7388854;19;20393;-62
2023/10/18 06:43:36;;;;;;;7.35;4.28;;;;;;;6.23;73.33;101609.06;7391580;19;20086;-63
2023/10/18 06:46:04;;;;;;;9.82;4.72;;;;;;;6.38;72.57;101616.31;7391363;19;20018;-63
2023/10/18 06:48:33;;;;;;;9.20;4.70;;;;;;;6.37;72.70;101611.09;7391008;19;20081;-62
2023/10/18 06:51:01;;;;;;;9.05;4.70;;;;;;;6.39;72.38;101612.75;7390148;19;20031;-62
2023/10/18 06:53:29;;;;;;;9.15;4.45;;;;;;;6.44;72.49;101610.78;7391303;19;20035;-62
2023/10/18 06:55:58;;;;;;;9.57;4.65;;;;;;;6.48;72.35;101611.50;7391318;19;20014;-62
2023/10/18 07:01:30;;;;;;;12.43;5.00;;;;;;;6.51;72.72;101609.59;7390130;19;20036;-63
2023/10/18 07:04:00;;;;;;;10.02;4.95;;;;;;;6.26;73.62;101609.81;7390944;19;20495;-63
2023/10/18 07:06:35;;;;;;;8.30;4.75;;;;;;;6.13;74.49;101605.94;7389828;19;20015;-63
2023/10/18 07:09:24;;;;;;;9.88;4.90;;;;;;;6.34;74.34;101609.47;7388244;19;20495;-63
2023/10/18 07:11:52;;;;;;;9.32;4.88;;;;;;;6.67;73.01;101603.66;7390816;19;20022;-63
2023/10/18 07:14:20;;;;;;;10.07;5.88;;;;;;;6.73;73.42;101613.94;7389809;19;20015;-63
2023/10/18 07:16:54;;;;;;;12.43;6.07;;;;;;;6.75;73.12;101607.69;7390853;19;20006;-63
2023/10/18 07:19:26;;;;;;;10.00;5.82;;;;;;;6.83;72.86;101599.47;7388092;19;20542;-63
2023/10/18 07:21:55;;;;;;;11.70;5.85;;;;;;;6.88;72.90;101599.25;7390438;19;20019;-62
2023/10/18 07:24:36;;;;;;;9.23;5.20;;;;;;;7.05;72.96;101592.28;7390535;19;20453;-63
2023/10/18 07:27:04;;;;;;;9.25;5.95;;;;;;;7.12;72.52;101597.28;7388939;19;20385;-62
2023/10/18 07:29:33;;;;;;;10.18;5.70;;;;;;;7.29;72.29;101590.31;7387342;19;20038;-63
2023/10/18 07:32:06;;;;;;;10.23;6.32;;;;;;;7.43;72.07;101588.81;7390136;19;20023;-63
2023/10/18 07:34:36;;;;;;;10.63;6.10;;;;;;;7.44;72.05;101585.22;7390186;19;20022;-62
2023/10/18 07:37:24;;;;;;;10.23;5.95;;;;;;;7.40;72.43;101584.53;7390851;19;20011;-63
2023/10/18 07:39:59;;;;;;;10.25;5.50;;;;;;;7.49;72.56;101581.47;7388921;19;20010;-62
2023/10/18 07:42:34;;;;;;;11.18;7.00;;;;;;;7.60;72.19;101578.31;7393111;19;20014;-63
2023/10/18 07:45:04;;;;;;;;;;;;;;;7.54;72.86;101575.97;7400855;19;20037;-63
2023/10/18 07:47:32;;;;;;;11.20;6.25;;;;;;;7.56;72.87;101567.06;7396981;19;19982;-63
2023/10/18 07:50:00;;;;;;;11.10;6.03;;;;;;;7.57;73.36;101563.50;7394102;19;20019;-63
2023/10/18 07:52:29;;;;;;;12.15;6.18;;;;;;;7.82;72.88;101567.56;7399241;19;20018;-63
2023/10/18 07:54:56;;;;;;;9.60;6.30;;;;;;;7.91;72.68;101563.66;7396428;19;20019;-63
2023/10/18 07:57:33;;;;;;;11.00;6.55;;;;;;;8.06;72.59;101566.38;7395757;19;20443;-64
2023/10/18 08:00:26;;;;;;;11.57;7.63;;;;;;;8.05;72.63;101562.03;7394339;19;20014;-64
2023/10/18 08:02:50;;;;;;;10.55;6.47;;;;;;;8.13;72.88;101556.38;7398544;19;20014;-64
2023/10/18 08:05:21;;;;;;;11.15;7.00;;;;;;;8.19;73.19;101542.84;7396545;19;20496;-64
2023/10/18 08:07:50;;;;;;;11.10;7.13;;;;;;;8.35;72.81;101545.56;7398342;19;20035;-64
2023/10/18 08:10:22;;;;;;;18.55;13.68;;;;;;;8.48;72.68;101546.66;7394443;19;20639;-64
2023/10/18 08:13:09;;;;;;;14.80;9.80;;;;;;;8.54;72.57;101541.06;7396601;19;20014;-64
2023/10/18 08:15:37;;;;;;;11.80;7.32;;;;;;;8.59;72.50;101537.34;7396734;19;20093;-64
2023/10/18 08:18:17;;;;;;;10.52;6.95;;;;;;;8.64;72.54;101538.78;7398751;19;20015;-64
2023/10/18 08:23:34;;;;;;;11.85;6.82;;;;;;;8.81;72.69;101529.09;7395972;19;20011;-63
2023/10/18 08:26:06;;;;;;;17.88;7.93;;;;;;;8.77;72.91;101534.56;7396269;19;20015;-63
2023/10/18 08:28:45;;;;;;;10.85;7.20;;;;;;;8.85;72.58;101530.66;7395545;19;20029;-62
2023/10/18 08:31:32;;;;;;;11.43;6.78;;;;;;;8.91;72.44;101523.25;7397521;19;20495;-63
2023/10/18 08:34:38;;;;;;;13.77;7.05;;;;;;;8.99;72.22;101534.25;7398416;19;20073;-62
2023/10/18 08:37:01;;;;;;;11.07;6.63;;;;;;;8.93;72.59;101517.88;7396000;19;20021;-62
2023/10/18 08:39:29;;;;;;;9.82;6.60;;;;;;;9.02;72.77;101520.03;7393773;19;20015;-62
2023/10/18 08:42:12;;;;;;;10.45;6.55;;;;;;;9.16;72.02;101516.63;7396040;19;20081;-62
2023/10/18 08:44:40;;;;;;;11.18;6.70;;;;;;;9.14;72.34;101519.34;7396411;19;20043;-62
2023/10/18 08:49:53;;;;;;;14.05;6.80;;;;;;;9.36;71.92;101508.44;7392021;19;20022;-62
2023/10/18 08:52:30;;;;;;;11.85;6.35;;;;;;;9.34;71.93;101512.09;7394910;19;20025;-63
2023/10/18 08:55:19;;;;;;;11.30;7.20;;;;;;;9.44;71.98;101502.72;7395612;19;20394;-62
2023/10/18 08:57:48;;;;;;;10.18;6.32;;;;;;;9.44;71.95;101506.22;7396517;19;20014;-62
2023/10/18 09:02:54;;;;;;;12.30;6.70;;;;;;;9.57;71.81;101505.50;7396428;19;20085;-61
2023/10/18 09:05:24;;;;;;;11.60;6.75;;;;;;;9.66;71.69;101500.56;7395952;19;20018;-62
2023/10/18 09:07:53;;;;;;;11.50;6.63;;;;;;;9.69;71.13;101491.56;7394007;19;20018;-62
2023/10/18 09:18:33;;;;;;;14.32;7.80;;;;;;;9.99;69.85;101489.75;7393993;19;20022;-63
2023/10/18 09:21:07;;;;;;;15.82;7.53;;;;;;;10.03;69.43;101487.78;7393270;19;20018;-63
2023/10/18 09:23:35;;;;;;;15.00;8.10;;;;;;;10.09;69.23;101482.13;7394222;19;20428;-62
2023/10/18 09:26:10;;;;;;;12.70;7.57;;;;;;;10.13;68.88;101478.38;7393930;19;20043;-63
2023/10/18 09:28:41;;;;;;;12.48;7.68;;;;;;;10.18;68.71;101484.22;7392306;19;20359;-63
2023/10/18 09:31:21;;;;;;;13.02;7.35;;;;;;;10.22;69.35;101474.31;7392750;19;20023;-63
2023/10/18 09:33:52;;;;;;;13.02;7.43;;;;;;;10.24;69.53;101467.13;7394122;19;20619;-63
2023/10/18 09:36:20;;;;;;;10.85;6.57;;;;;;;10.33;69.22;101461.28;7393783;19;20018;-63
2023/10/18 09:38:49;;;;;;;11.32;7.30;;;;;;;10.34;69.33;101465.66;7391013;19;20018;-63
2023/10/18 09:41:18;;;;;;;12.15;7.70;;;;;;;10.37;68.97;101460.16;7391963;19;20018;-64
2023/10/18 09:43:48;;;;;;;13.52;7.75;;;;;;;10.43;68.55;101464.25;7393517;19;20022;-63
2023/10/18 09:46:16;;;;;;;14.43;7.97;;;;;;;10.47;68.90;101450.72;7393612;19;20022;-63
2023/10/18 09:48:46;;;;;;;14.05;7.68;;;;;;;10.53;68.78;101448.63;7389664;19;20029;-63
2023/10/18 09:51:15;;;;;;;11.65;7.40;;;;;;;10.52;68.66;101449.56;7393489;19;20015;-63
2023/10/18 09:53:49;;;;;;;14.45;7.32;;;;;;;10.57;69.00;101437.75;7393151;19;20372;-63
2023/10/18 09:56:24;;;;;;;13.47;6.93;;;;;;;10.66;68.75;101444.28;7392287;19;20423;-63
2023/10/18 09:59:16;;;;;;;10.13;6.85;;;;;;;10.65;69.00;101442.59;7386812;19;20098;-63
2023/10/18 10:04:12;;;;;;;10.98;6.43;;;;;;;10.78;68.59;101435.53;7389543;19;20365;-64
2023/10/18 10:09:38;;;;;;;;;;;;;;;10.61;68.96;101428.69;7388404;19;20018;-64
2023/10/18 10:12:11;;;;;;;11.88;7.05;;;;;;;10.67;68.94;101436.22;7390520;19;19922;-64
2023/10/18 10:14:39;;;;;;;11.50;6.53;;;;;;;10.82;68.32;101431.75;7389976;19;20014;-64
2023/10/18 10:17:17;;;;;;;11.45;7.45;;;;;;;11.02;67.89;101434.91;7393269;19;20052;-63
2023/10/18 10:19:55;;;;;;;9.73;6.60;;;;;;;11.09;67.53;101415.88;7390335;19;20022;-64
2023/10/18 10:22:25;;;;;;;10.80;6.28;;;;;;;11.13;67.19;101422.66;7392224;19;20025;-64
2023/10/18 10:25:00;;;;;;;11.60;7.33;;;;;;;11.16;66.95;101413.66;7392454;19;20018;-64
2023/10/18 10:27:52;;;;;;;10.88;6.72;;;;;;;11.13;67.21;101404.09;7391561;19;20022;-64
2023/10/18 10:32:58;;;;;;;13.60;7.57;;;;;;;11.27;66.81;101405.00;7392077;19;20017;-64
2023/10/18 10:35:32;;;;;;;13.15;7.10;;;;;;;11.31;66.76;101398.56;7392718;19;20015;-64
2023/10/18 10:38:13;;;;;;;11.43;6.53;;;;;;;11.34;66.51;101401.84;7389833;19;20025;-64
2023/10/18 10:40:43;;;;;;;10.38;6.00;;;;;;;11.40;66.24;101393.47;7390766;19;20487;-64
2023/10/18 10:43:14;;;;;;;10.63;5.75;;;;;;;11.50;65.77;101385.75;7391984;19;20391;-64
2023/10/18 10:45:53;;;;;;;8.43;4.85;;;;;;;11.60;65.52;101385.97;7391753;19;20090;-64
2023/10/18 10:53:44;;;;;;;8.38;5.32;;;;;;;11.77;64.53;101375.06;7391650;19;20023;-64
2023/10/18 10:56:28;;;;;;;8.07;5.00;;;;;;;11.82;64.46;101362.31;7391410;19;20039;-64
2023/10/18 10:59:04;;;;;;;7.20;4.40;;;;;;;11.84;63.84;101363.13;7387587;19;20043;-62
2023/10/18 11:01:43;;;;;;;9.30;4.70;;;;;;;11.87;62.69;101354.94;7391573;19;20019;-62
2023/10/18 11:04:23;;;;;;;6.32;4.32;;;;;;;11.86;62.36;101345.25;7389602;19;20031;-62
2023/10/18 11:07:00;;;;;;;8.38;4.43;;;;;;;11.85;61.76;101338.25;7391198;19;20090;-62
2023/10/18 11:09:41;;;;;;;8.05;4.47;;;;;;;11.82;61.69;101338.44;7388376;19;20015;-62
2023/10/18 11:12:12;;;;;;;9.52;4.60;;;;;;;11.81;61.26;101335.91;7390916;19;20352;-64
2023/10/18 11:14:43;;;;;;;8.18;4.38;;;;;;;11.82;61.18;101329.63;7390866;19;20031;-64
2023/10/18 11:19:51;;;;;;;10.52;4.72;;;;;;;11.87;60.92;101322.25;7394347;19;20025;-64
2023/10/18 11:22:23;;;;;;;7.25;4.70;;;;;;;11.90;61.24;101322.88;7398624;19;20014;-64
2023/10/18 11:24:55;;;;;;;8.48;4.63;;;;;;;11.91;61.09;101308.66;7398458;19;20507;-64
2023/10/18 11:27:34;;;;;;;6.63;3.90;;;;;;;11.99;60.84;101315.22;7398008;19;20023;-64
2023/10/18 11:30:25;;;;;;;8.55;4.68;;;;;;;11.97;60.60;101304.72;7392809;19;20030;-64
2023/10/18 11:32:54;;;;;;;9.30;5.25;;;;;;;11.95;61.16;101296.88;7397903;19;20018;-64
2023/10/18 11:35:27;;;;;;;9.15;4.97;;;;;;;12.03;60.79;101293.66;7398088;19;20459;-64
2023/10/18 11:37:55;;;;;;;10.45;5.13;;;;;;;12.03;60.58;101288.34;7397056;19;20367;-63
2023/10/18 11:40:25;;;;;;;7.93;4.47;;;;;;;12.06;60.38;101285.50;7397127;19;20142;-63
2023/10/18 11:43:08;;;;;;;8.13;5.32;;;;;;;12.07;60.46;101286.34;7398026;19;20018;-64
2023/10/18 11:45:38;;;;;;;9.95;5.88;;;;;;;12.06;60.87;101277.53;7397632;19;20590;-64
2023/10/18 11:48:06;;;;;;;11.13;6.95;;;;;;;12.08;60.61;101269.44;7396480;19;20411;-64
2023/10/18 11:50:48;;;;;;;9.23;5.97;;;;;;;12.14;60.28;101255.75;7394809;19;20014;-64
2023/10/18 11:53:23;;;;;;;9.68;5.95;;;;;;;12.08;60.60;101250.84;7397738;19;20636;-64
2023/10/18 11:55:58;;;;;;;10.38;5.20;;;;;;;12.10;60.24;101255.09;7396998;19;20027;-63
2023/10/18 11:58:31;;;;;;;9.68;5.40;;;;;;;12.06;59.59;101242.16;7396155;19;20093;-64
2023/10/18 12:03:27;;;;;;;9.50;5.70;;;;;;;12.13;59.96;101231.00;7397280;19;20104;-65
2023/10/18 12:05:57;;;;;;;10.20;6.53;;;;;;;12.18;60.55;101233.31;7392976;19;20393;-65
2023/10/18 12:08:30;;;;;;;11.93;6.88;;;;;;;12.17;61.29;101231.59;7395623;19;20117;-65
2023/10/18 12:10:57;;;;;;;10.75;5.90;;;;;;;12.16;61.01;101224.59;7396133;19;20026;-65
2023/10/18 12:13:26;;;;;;;10.80;5.13;;;;;;;12.17;59.80;101219.19;7396609;19;20014;-65
2023/10/18 12:16:00;;;;;;;12.15;5.90;;;;;;;12.20;60.33;101212.78;7396737;19;20014;-64
2023/10/18 12:18:32;;;;;;;11.23;6.55;;;;;;;12.18;60.95;101207.59;7395833;19;20023;-64
2023/10/18 12:20:59;;;;;;;10.15;6.60;;;;;;;12.18;61.04;101193.50;7395780;19;20023;-64
2023/10/18 12:23:27;;;;;;;7.53;4.93;;;;;;;12.18;60.82;101190.81;7393877;19;20014;-64
2023/10/18 12:25:55;;;;;;;10.10;5.47;;;;;;;12.20;60.44;101191.53;7395757;19;20074;-64
2023/10/18 12:28:28;;;;;;;10.13;5.45;;;;;;;12.26;60.71;101193.75;7393895;19;20038;-64
2023/10/18 12:31:00;;;;;;;14.82;5.78;;;;;;;12.21;60.98;101185.31;7394976;19;20454;-64
2023/10/18 12:33:29;;;;;;;10.68;5.95;;;;;;;12.22;61.26;101183.50;7395779;19;20023;-64
2023/10/18 12:35:58;;;;;;;10.50;5.88;;;;;;;12.19;61.08;101182.75;7394230;19;20018;-64
2023/10/18 12:38:32;;;;;;;11.95;6.25;;;;;;;12.25;60.86;101183.22;7394917;19;20015;-64
2023/10/18 12:41:18;;;;;;;13.45;7.00;;;;;;;12.24;60.86;101174.44;7394612;19;20011;-64
2023/10/18 12:43:46;;;;;;;11.18;6.80;;;;;;;12.22;60.91;101170.22;7395484;19;20018;-64
2023/10/18 12:46:17;;;;;;;9.63;5.22;;;;;;;12.24;59.89;101160.31;7395131;19;20026;-64
2023/10/18 12:48:45;;;;;;;9.15;4.80;;;;;;;12.27;59.07;101162.75;7393893;19;20550;-65